sensor_id;sensor_type;location;lat;lon;timestamp;P1;durP1;ratioP1;P2;durP2;ratioP2
23567;SDS011;11962;50.838;4.430;2023-05-07T00:00:41;10.57;;;3.33;;
23567;SDS011;11962;50.838;4.430;2023-05-07T00:03:07;10.02;;;3.30;;
23567;SDS011;11962;50.838;4.430;2023-05-07T00:05:33;7.10;;;3.17;;
23567;SDS011;11962;50.838;4.430;2023-05-07T00:07:59;7.55;;;3.13;;
23567;SDS011;11962;50.838;4.430;2023-05-07T00:10:25;9.70;;;3.65;;
23567;SDS011;11962;50.838;4.430;2023-05-07T00:12:51;11.82;;;3.30;;
23567;SDS011;11962;50.838;4.430;2023-05-07T00:15:16;9.20;;;2.83;;
23567;SDS011;11962;50.838;4.430;2023-05-07T00:17:42;7.97;;;3.40;;
23567;SDS011;11962;50.838;4.430;2023-05-07T00:20:08;8.05;;;3.35;;
23567;SDS011;11962;50.838;4.430;2023-05-07T00:22:34;6.60;;;3.40;;
23567;SDS011;11962;50.838;4.430;2023-05-07T00:25:00;9.00;;;3.42;;
23567;SDS011;11962;50.838;4.430;2023-05-07T00:27:26;6.97;;;2.90;;
23567;SDS011;11962;50.838;4.430;2023-05-07T00:29:51;16.33;;;3.85;;
23567;SDS011;11962;50.838;4.430;2023-05-07T00:32:17;11.18;;;3.67;;
23567;SDS011;11962;50.838;4.430;2023-05-07T00:34:43;9.43;;;3.00;;
23567;SDS011;11962;50.838;4.430;2023-05-07T00:37:09;11.48;;;3.60;;
23567;SDS011;11962;50.838;4.430;2023-05-07T00:42:57;10.82;;;3.50;;
23567;SDS011;11962;50.838;4.430;2023-05-07T00:45:25;9.95;;;3.25;;
23567;SDS011;11962;50.838;4.430;2023-05-07T00:47:54;8.63;;;3.33;;
23567;SDS011;11962;50.838;4.430;2023-05-07T00:50:23;10.27;;;3.40;;
23567;SDS011;11962;50.838;4.430;2023-05-07T00:52:49;10.32;;;3.83;;
23567;SDS011;11962;50.838;4.430;2023-05-07T00:55:15;6.20;;;3.08;;
23567;SDS011;11962;50.838;4.430;2023-05-07T00:57:42;9.60;;;3.20;;
23567;SDS011;11962;50.838;4.430;2023-05-07T01:00:09;10.57;;;3.13;;
23567;SDS011;11962;50.838;4.430;2023-05-07T01:02:35;11.20;;;3.42;;
23567;SDS011;11962;50.838;4.430;2023-05-07T01:05:01;7.63;;;3.60;;
23567;SDS011;11962;50.838;4.430;2023-05-07T01:07:29;6.00;;;3.22;;
23567;SDS011;11962;50.838;4.430;2023-05-07T01:09:57;9.13;;;2.97;;
23567;SDS011;11962;50.838;4.430;2023-05-07T01:12:24;8.30;;;3.17;;
23567;SDS011;11962;50.838;4.430;2023-05-07T01:14:50;5.55;;;2.92;;
23567;SDS011;11962;50.838;4.430;2023-05-07T01:17:17;6.05;;;3.00;;
23567;SDS011;11962;50.838;4.430;2023-05-07T01:19:42;8.07;;;3.05;;
23567;SDS011;11962;50.838;4.430;2023-05-07T01:22:09;8.02;;;3.35;;
23567;SDS011;11962;50.838;4.430;2023-05-07T01:24:37;5.07;;;2.80;;
23567;SDS011;11962;50.838;4.430;2023-05-07T01:27:03;9.90;;;3.30;;
23567;SDS011;11962;50.838;4.430;2023-05-07T01:29:29;7.78;;;2.90;;
23567;SDS011;11962;50.838;4.430;2023-05-07T01:31:59;5.70;;;3.22;;
23567;SDS011;11962;50.838;4.430;2023-05-07T01:34:27;6.40;;;2.97;;
23567;SDS011;11962;50.838;4.430;2023-05-07T01:36:55;7.63;;;3.38;;
23567;SDS011;11962;50.838;4.430;2023-05-07T01:39:26;6.87;;;3.27;;
23567;SDS011;11962;50.838;4.430;2023-05-07T01:41:56;9.60;;;3.42;;
23567;SDS011;11962;50.838;4.430;2023-05-07T01:44:24;7.38;;;3.30;;
23567;SDS011;11962;50.838;4.430;2023-05-07T01:46:51;11.23;;;3.15;;
23567;SDS011;11962;50.838;4.430;2023-05-07T01:49:18;6.65;;;2.90;;
23567;SDS011;11962;50.838;4.430;2023-05-07T01:51:44;9.80;;;3.20;;
23567;SDS011;11962;50.838;4.430;2023-05-07T01:54:10;7.70;;;3.40;;
23567;SDS011;11962;50.838;4.430;2023-05-07T01:56:36;8.90;;;3.55;;
23567;SDS011;11962;50.838;4.430;2023-05-07T01:59:01;10.25;;;3.65;;
23567;SDS011;11962;50.838;4.430;2023-05-07T02:01:27;9.73;;;3.25;;
23567;SDS011;11962;50.838;4.430;2023-05-07T02:03:53;5.68;;;2.85;;
23567;SDS011;11962;50.838;4.430;2023-05-07T02:06:19;10.57;;;3.22;;
23567;SDS011;11962;50.838;4.430;2023-05-07T02:08:46;10.07;;;3.72;;
23567;SDS011;11962;50.838;4.430;2023-05-07T02:11:12;11.55;;;3.78;;
23567;SDS011;11962;50.838;4.430;2023-05-07T02:13:38;10.57;;;3.75;;
23567;SDS011;11962;50.838;4.430;2023-05-07T02:16:04;12.00;;;3.30;;
23567;SDS011;11962;50.838;4.430;2023-05-07T02:18:30;11.43;;;3.65;;
23567;SDS011;11962;50.838;4.430;2023-05-07T02:20:56;9.35;;;3.83;;
23567;SDS011;11962;50.838;4.430;2023-05-07T02:23:22;7.43;;;3.60;;
23567;SDS011;11962;50.838;4.430;2023-05-07T02:25:48;8.85;;;3.33;;
23567;SDS011;11962;50.838;4.430;2023-05-07T02:28:14;6.97;;;3.55;;
23567;SDS011;11962;50.838;4.430;2023-05-07T02:30:40;11.45;;;3.45;;
23567;SDS011;11962;50.838;4.430;2023-05-07T02:33:06;9.90;;;3.63;;
23567;SDS011;11962;50.838;4.430;2023-05-07T02:35:33;9.32;;;4.05;;
23567;SDS011;11962;50.838;4.430;2023-05-07T02:37:59;9.98;;;3.92;;
23567;SDS011;11962;50.838;4.430;2023-05-07T02:40:24;13.18;;;3.88;;
23567;SDS011;11962;50.838;4.430;2023-05-07T02:42:50;8.13;;;3.30;;
23567;SDS011;11962;50.838;4.430;2023-05-07T02:45:16;11.35;;;3.63;;
23567;SDS011;11962;50.838;4.430;2023-05-07T02:47:42;9.90;;;3.85;;
23567;SDS011;11962;50.838;4.430;2023-05-07T02:50:07;8.27;;;3.95;;
23567;SDS011;11962;50.838;4.430;2023-05-07T02:52:33;5.65;;;3.42;;
23567;SDS011;11962;50.838;4.430;2023-05-07T02:54:59;7.97;;;3.63;;
23567;SDS011;11962;50.838;4.430;2023-05-07T02:57:25;11.10;;;3.80;;
23567;SDS011;11962;50.838;4.430;2023-05-07T02:59:50;14.32;;;3.78;;
23567;SDS011;11962;50.838;4.430;2023-05-07T03:02:16;9.55;;;4.10;;
23567;SDS011;11962;50.838;4.430;2023-05-07T03:04:42;14.05;;;3.80;;
23567;SDS011;11962;50.838;4.430;2023-05-07T03:07:08;9.75;;;4.10;;
23567;SDS011;11962;50.838;4.430;2023-05-07T03:09:33;10.80;;;3.85;;
23567;SDS011;11962;50.838;4.430;2023-05-07T03:11:59;12.73;;;4.80;;
23567;SDS011;11962;50.838;4.430;2023-05-07T03:14:26;11.75;;;4.60;;
23567;SDS011;11962;50.838;4.430;2023-05-07T03:16:52;15.20;;;5.35;;
23567;SDS011;11962;50.838;4.430;2023-05-07T03:19:18;11.57;;;5.28;;
23567;SDS011;11962;50.838;4.430;2023-05-07T03:21:43;10.30;;;5.35;;
23567;SDS011;11962;50.838;4.430;2023-05-07T03:24:09;11.15;;;4.90;;
23567;SDS011;11962;50.838;4.430;2023-05-07T03:26:35;13.57;;;6.57;;
23567;SDS011;11962;50.838;4.430;2023-05-07T03:29:01;11.77;;;6.43;;
23567;SDS011;11962;50.838;4.430;2023-05-07T03:31:26;16.02;;;6.97;;
23567;SDS011;11962;50.838;4.430;2023-05-07T03:33:53;14.27;;;5.70;;
23567;SDS011;11962;50.838;4.430;2023-05-07T03:36:21;10.55;;;4.78;;
23567;SDS011;11962;50.838;4.430;2023-05-07T03:38:47;9.98;;;4.60;;
23567;SDS011;11962;50.838;4.430;2023-05-07T03:41:14;9.73;;;4.80;;
23567;SDS011;11962;50.838;4.430;2023-05-07T03:43:40;11.07;;;5.28;;
23567;SDS011;11962;50.838;4.430;2023-05-07T03:46:05;20.95;;;4.95;;
23567;SDS011;11962;50.838;4.430;2023-05-07T03:48:31;10.18;;;4.43;;
23567;SDS011;11962;50.838;4.430;2023-05-07T03:50:57;13.18;;;4.13;;
23567;SDS011;11962;50.838;4.430;2023-05-07T03:53:23;9.63;;;4.45;;
23567;SDS011;11962;50.838;4.430;2023-05-07T03:55:49;8.82;;;3.50;;
23567;SDS011;11962;50.838;4.430;2023-05-07T03:58:15;7.70;;;3.83;;
23567;SDS011;11962;50.838;4.430;2023-05-07T04:00:41;9.13;;;3.65;;
23567;SDS011;11962;50.838;4.430;2023-05-07T04:03:07;9.27;;;4.20;;
23567;SDS011;11962;50.838;4.430;2023-05-07T04:05:33;12.13;;;4.03;;
23567;SDS011;11962;50.838;4.430;2023-05-07T04:07:59;7.25;;;3.70;;
23567;SDS011;11962;50.838;4.430;2023-05-07T04:10:25;9.38;;;4.10;;
23567;SDS011;11962;50.838;4.430;2023-05-07T04:12:51;12.65;;;3.78;;
23567;SDS011;11962;50.838;4.430;2023-05-07T04:15:17;8.25;;;3.70;;
23567;SDS011;11962;50.838;4.430;2023-05-07T04:17:43;9.07;;;3.83;;
23567;SDS011;11962;50.838;4.430;2023-05-07T04:20:09;8.10;;;3.75;;
23567;SDS011;11962;50.838;4.430;2023-05-07T04:22:35;14.65;;;3.88;;
23567;SDS011;11962;50.838;4.430;2023-05-07T04:25:02;9.27;;;3.90;;
23567;SDS011;11962;50.838;4.430;2023-05-07T04:27:28;11.65;;;3.53;;
23567;SDS011;11962;50.838;4.430;2023-05-07T04:29:54;7.55;;;3.88;;
23567;SDS011;11962;50.838;4.430;2023-05-07T04:34:50;8.00;;;3.30;;
23567;SDS011;11962;50.838;4.430;2023-05-07T04:37:16;9.75;;;4.22;;
23567;SDS011;11962;50.838;4.430;2023-05-07T04:39:42;10.13;;;3.40;;
23567;SDS011;11962;50.838;4.430;2023-05-07T04:42:07;10.77;;;4.07;;
23567;SDS011;11962;50.838;4.430;2023-05-07T04:44:34;10.43;;;4.10;;
23567;SDS011;11962;50.838;4.430;2023-05-07T04:47:02;9.70;;;3.92;;
23567;SDS011;11962;50.838;4.430;2023-05-07T04:49:27;10.02;;;3.80;;
23567;SDS011;11962;50.838;4.430;2023-05-07T04:51:53;12.68;;;3.92;;
23567;SDS011;11962;50.838;4.430;2023-05-07T04:54:19;8.27;;;4.03;;
23567;SDS011;11962;50.838;4.430;2023-05-07T04:56:45;6.97;;;3.40;;
23567;SDS011;11962;50.838;4.430;2023-05-07T04:59:10;10.93;;;3.95;;
23567;SDS011;11962;50.838;4.430;2023-05-07T05:01:36;9.15;;;3.85;;
23567;SDS011;11962;50.838;4.430;2023-05-07T05:04:02;6.63;;;3.47;;
23567;SDS011;11962;50.838;4.430;2023-05-07T05:06:28;10.88;;;3.67;;
23567;SDS011;11962;50.838;4.430;2023-05-07T05:08:54;7.50;;;3.60;;
23567;SDS011;11962;50.838;4.430;2023-05-07T05:11:20;14.00;;;4.15;;
23567;SDS011;11962;50.838;4.430;2023-05-07T05:13:46;9.73;;;3.55;;
23567;SDS011;11962;50.838;4.430;2023-05-07T05:16:14;9.68;;;3.53;;
23567;SDS011;11962;50.838;4.430;2023-05-07T05:18:40;8.57;;;3.53;;
23567;SDS011;11962;50.838;4.430;2023-05-07T05:21:06;11.20;;;4.20;;
23567;SDS011;11962;50.838;4.430;2023-05-07T05:23:32;10.82;;;3.42;;
23567;SDS011;11962;50.838;4.430;2023-05-07T05:25:57;8.75;;;3.50;;
23567;SDS011;11962;50.838;4.430;2023-05-07T05:28:23;9.68;;;3.67;;
23567;SDS011;11962;50.838;4.430;2023-05-07T05:30:49;8.10;;;3.50;;
23567;SDS011;11962;50.838;4.430;2023-05-07T05:33:15;11.40;;;3.75;;
23567;SDS011;11962;50.838;4.430;2023-05-07T05:35:41;8.45;;;3.70;;
23567;SDS011;11962;50.838;4.430;2023-05-07T05:38:07;11.45;;;3.67;;
23567;SDS011;11962;50.838;4.430;2023-05-07T05:40:33;9.73;;;3.42;;
23567;SDS011;11962;50.838;4.430;2023-05-07T05:42:59;7.57;;;3.72;;
23567;SDS011;11962;50.838;4.430;2023-05-07T05:45:25;11.00;;;3.90;;
23567;SDS011;11962;50.838;4.430;2023-05-07T05:47:51;12.43;;;4.00;;
23567;SDS011;11962;50.838;4.430;2023-05-07T05:50:17;11.00;;;3.72;;
23567;SDS011;11962;50.838;4.430;2023-05-07T05:52:42;6.90;;;3.65;;
23567;SDS011;11962;50.838;4.430;2023-05-07T05:55:08;9.32;;;3.97;;
23567;SDS011;11962;50.838;4.430;2023-05-07T05:57:34;9.45;;;3.40;;
23567;SDS011;11962;50.838;4.430;2023-05-07T06:00:00;9.15;;;3.72;;
23567;SDS011;11962;50.838;4.430;2023-05-07T06:02:27;7.70;;;3.50;;
23567;SDS011;11962;50.838;4.430;2023-05-07T06:04:53;10.77;;;3.40;;
23567;SDS011;11962;50.838;4.430;2023-05-07T06:07:19;7.32;;;3.63;;
23567;SDS011;11962;50.838;4.430;2023-05-07T06:09:45;6.40;;;3.55;;
23567;SDS011;11962;50.838;4.430;2023-05-07T06:12:11;10.10;;;3.92;;
23567;SDS011;11962;50.838;4.430;2023-05-07T06:14:37;10.85;;;3.20;;
23567;SDS011;11962;50.838;4.430;2023-05-07T06:17:02;10.20;;;3.38;;
23567;SDS011;11962;50.838;4.430;2023-05-07T06:19:28;18.05;;;3.78;;
23567;SDS011;11962;50.838;4.430;2023-05-07T06:21:54;7.20;;;3.40;;
23567;SDS011;11962;50.838;4.430;2023-05-07T06:24:21;11.95;;;4.03;;
23567;SDS011;11962;50.838;4.430;2023-05-07T06:26:47;11.48;;;4.05;;
23567;SDS011;11962;50.838;4.430;2023-05-07T06:29:13;10.85;;;4.10;;
23567;SDS011;11962;50.838;4.430;2023-05-07T06:31:39;9.77;;;3.45;;
23567;SDS011;11962;50.838;4.430;2023-05-07T06:34:05;11.38;;;4.13;;
23567;SDS011;11962;50.838;4.430;2023-05-07T06:36:31;11.18;;;4.00;;
23567;SDS011;11962;50.838;4.430;2023-05-07T06:38:56;11.13;;;3.72;;
23567;SDS011;11962;50.838;4.430;2023-05-07T06:41:22;9.48;;;3.33;;
23567;SDS011;11962;50.838;4.430;2023-05-07T06:43:48;12.50;;;3.72;;
23567;SDS011;11962;50.838;4.430;2023-05-07T06:46:14;8.55;;;3.53;;
23567;SDS011;11962;50.838;4.430;2023-05-07T06:48:40;8.02;;;3.30;;
23567;SDS011;11962;50.838;4.430;2023-05-07T06:51:05;8.23;;;3.20;;
23567;SDS011;11962;50.838;4.430;2023-05-07T06:53:31;10.18;;;3.50;;
23567;SDS011;11962;50.838;4.430;2023-05-07T06:55:57;9.77;;;3.22;;
23567;SDS011;11962;50.838;4.430;2023-05-07T06:58:23;6.50;;;3.28;;
23567;SDS011;11962;50.838;4.430;2023-05-07T07:00:49;8.73;;;3.45;;
23567;SDS011;11962;50.838;4.430;2023-05-07T07:03:14;6.18;;;3.10;;
23567;SDS011;11962;50.838;4.430;2023-05-07T07:05:41;5.93;;;3.25;;
23567;SDS011;11962;50.838;4.430;2023-05-07T07:08:07;10.32;;;3.40;;
23567;SDS011;11962;50.838;4.430;2023-05-07T07:10:32;5.15;;;2.72;;
23567;SDS011;11962;50.838;4.430;2023-05-07T07:12:58;9.15;;;3.25;;
23567;SDS011;11962;50.838;4.430;2023-05-07T07:15:25;8.20;;;3.03;;
23567;SDS011;11962;50.838;4.430;2023-05-07T07:17:51;8.60;;;3.50;;
23567;SDS011;11962;50.838;4.430;2023-05-07T07:20:17;8.50;;;3.30;;
23567;SDS011;11962;50.838;4.430;2023-05-07T07:22:42;6.70;;;2.75;;
23567;SDS011;11962;50.838;4.430;2023-05-07T07:25:08;8.05;;;3.50;;
23567;SDS011;11962;50.838;4.430;2023-05-07T07:27:36;6.97;;;3.45;;
23567;SDS011;11962;50.838;4.430;2023-05-07T07:30:02;8.52;;;3.28;;
23567;SDS011;11962;50.838;4.430;2023-05-07T07:32:28;6.03;;;3.15;;
23567;SDS011;11962;50.838;4.430;2023-05-07T07:34:54;7.38;;;2.75;;
23567;SDS011;11962;50.838;4.430;2023-05-07T07:37:20;7.55;;;2.92;;
23567;SDS011;11962;50.838;4.430;2023-05-07T07:39:51;7.93;;;3.33;;
23567;SDS011;11962;50.838;4.430;2023-05-07T07:42:17;6.85;;;3.25;;
23567;SDS011;11962;50.838;4.430;2023-05-07T07:44:43;6.90;;;3.30;;
23567;SDS011;11962;50.838;4.430;2023-05-07T07:47:09;8.18;;;3.78;;
23567;SDS011;11962;50.838;4.430;2023-05-07T07:49:35;8.13;;;3.67;;
23567;SDS011;11962;50.838;4.430;2023-05-07T07:52:01;7.72;;;3.65;;
23567;SDS011;11962;50.838;4.430;2023-05-07T07:54:27;6.57;;;3.38;;
23567;SDS011;11962;50.838;4.430;2023-05-07T07:56:54;6.25;;;3.55;;
23567;SDS011;11962;50.838;4.430;2023-05-07T07:59:20;8.85;;;3.67;;
23567;SDS011;11962;50.838;4.430;2023-05-07T08:01:45;10.50;;;3.60;;
23567;SDS011;11962;50.838;4.430;2023-05-07T08:04:13;8.10;;;3.55;;
23567;SDS011;11962;50.838;4.430;2023-05-07T08:06:39;8.00;;;3.88;;
23567;SDS011;11962;50.838;4.430;2023-05-07T08:09:04;6.18;;;3.15;;
23567;SDS011;11962;50.838;4.430;2023-05-07T08:11:30;7.80;;;4.07;;
23567;SDS011;11962;50.838;4.430;2023-05-07T08:13:56;7.50;;;3.72;;
23567;SDS011;11962;50.838;4.430;2023-05-07T08:16:22;8.00;;;3.80;;
23567;SDS011;11962;50.838;4.430;2023-05-07T08:18:48;6.60;;;3.95;;
23567;SDS011;11962;50.838;4.430;2023-05-07T08:21:13;10.30;;;3.78;;
23567;SDS011;11962;50.838;4.430;2023-05-07T08:23:39;6.10;;;3.50;;
23567;SDS011;11962;50.838;4.430;2023-05-07T08:26:05;8.82;;;4.10;;
23567;SDS011;11962;50.838;4.430;2023-05-07T08:28:32;11.07;;;4.00;;
23567;SDS011;11962;50.838;4.430;2023-05-07T08:30:58;7.85;;;3.83;;
23567;SDS011;11962;50.838;4.430;2023-05-07T08:33:26;8.68;;;4.22;;
23567;SDS011;11962;50.838;4.430;2023-05-07T08:35:52;7.05;;;3.30;;
23567;SDS011;11962;50.838;4.430;2023-05-07T08:38:17;9.07;;;3.95;;
23567;SDS011;11962;50.838;4.430;2023-05-07T08:40:43;9.45;;;3.65;;
23567;SDS011;11962;50.838;4.430;2023-05-07T08:43:11;7.00;;;4.05;;
23567;SDS011;11962;50.838;4.430;2023-05-07T08:45:39;7.95;;;3.97;;
23567;SDS011;11962;50.838;4.430;2023-05-07T08:48:08;9.50;;;3.72;;
23567;SDS011;11962;50.838;4.430;2023-05-07T08:50:39;7.32;;;3.72;;
23567;SDS011;11962;50.838;4.430;2023-05-07T08:53:05;5.80;;;3.65;;
23567;SDS011;11962;50.838;4.430;2023-05-07T08:55:31;8.05;;;3.20;;
23567;SDS011;11962;50.838;4.430;2023-05-07T08:57:58;5.15;;;3.00;;
23567;SDS011;11962;50.838;4.430;2023-05-07T09:00:24;6.93;;;3.05;;
23567;SDS011;11962;50.838;4.430;2023-05-07T09:02:50;6.22;;;2.83;;
23567;SDS011;11962;50.838;4.430;2023-05-07T09:05:17;6.07;;;2.70;;
23567;SDS011;11962;50.838;4.430;2023-05-07T09:07:43;8.63;;;2.90;;
23567;SDS011;11962;50.838;4.430;2023-05-07T09:10:09;7.03;;;3.03;;
23567;SDS011;11962;50.838;4.430;2023-05-07T09:12:35;5.53;;;2.95;;
23567;SDS011;11962;50.838;4.430;2023-05-07T09:15:01;7.25;;;3.33;;
23567;SDS011;11962;50.838;4.430;2023-05-07T09:17:28;7.15;;;2.95;;
23567;SDS011;11962;50.838;4.430;2023-05-07T09:19:54;7.63;;;3.20;;
23567;SDS011;11962;50.838;4.430;2023-05-07T09:22:20;7.90;;;4.95;;
23567;SDS011;11962;50.838;4.430;2023-05-07T09:24:49;6.47;;;4.38;;
23567;SDS011;11962;50.838;4.430;2023-05-07T09:27:15;16.30;;;11.77;;
23567;SDS011;11962;50.838;4.430;2023-05-07T09:29:43;7.93;;;4.30;;
23567;SDS011;11962;50.838;4.430;2023-05-07T09:32:09;5.32;;;3.22;;
23567;SDS011;11962;50.838;4.430;2023-05-07T09:34:35;5.80;;;2.80;;
23567;SDS011;11962;50.838;4.430;2023-05-07T09:37:01;5.65;;;2.90;;
23567;SDS011;11962;50.838;4.430;2023-05-07T09:42:11;10.93;;;7.18;;
23567;SDS011;11962;50.838;4.430;2023-05-07T09:44:37;7.72;;;3.45;;
23567;SDS011;11962;50.838;4.430;2023-05-07T09:47:07;5.22;;;2.85;;
23567;SDS011;11962;50.838;4.430;2023-05-07T09:49:34;6.47;;;3.22;;
23567;SDS011;11962;50.838;4.430;2023-05-07T09:52:04;7.95;;;3.17;;
23567;SDS011;11962;50.838;4.430;2023-05-07T09:54:33;5.78;;;3.28;;
23567;SDS011;11962;50.838;4.430;2023-05-07T09:57:03;8.05;;;3.33;;
23567;SDS011;11962;50.838;4.430;2023-05-07T09:59:31;4.68;;;2.60;;
23567;SDS011;11962;50.838;4.430;2023-05-07T10:01:58;6.68;;;2.75;;
23567;SDS011;11962;50.838;4.430;2023-05-07T10:04:25;6.53;;;2.95;;
23567;SDS011;11962;50.838;4.430;2023-05-07T10:06:51;4.60;;;3.40;;
23567;SDS011;11962;50.838;4.430;2023-05-07T10:09:18;6.22;;;2.53;;
23567;SDS011;11962;50.838;4.430;2023-05-07T10:11:45;7.15;;;3.67;;
23567;SDS011;11962;50.838;4.430;2023-05-07T10:14:13;4.93;;;2.70;;
23567;SDS011;11962;50.838;4.430;2023-05-07T10:16:39;5.85;;;2.90;;
23567;SDS011;11962;50.838;4.430;2023-05-07T10:19:09;8.48;;;3.40;;
23567;SDS011;11962;50.838;4.430;2023-05-07T10:21:39;4.65;;;2.67;;
23567;SDS011;11962;50.838;4.430;2023-05-07T10:24:10;5.80;;;2.20;;
23567;SDS011;11962;50.838;4.430;2023-05-07T10:26:42;6.70;;;2.17;;
23567;SDS011;11962;50.838;4.430;2023-05-07T10:29:18;3.47;;;2.10;;
23567;SDS011;11962;50.838;4.430;2023-05-07T10:34:36;5.38;;;2.20;;
23567;SDS011;11962;50.838;4.430;2023-05-07T10:37:05;6.70;;;2.22;;
23567;SDS011;11962;50.838;4.430;2023-05-07T10:39:32;6.15;;;2.40;;
23567;SDS011;11962;50.838;4.430;2023-05-07T10:42:07;5.97;;;2.60;;
23567;SDS011;11962;50.838;4.430;2023-05-07T10:44:33;14.73;;;8.57;;
23567;SDS011;11962;50.838;4.430;2023-05-07T10:47:04;8.05;;;3.90;;
23567;SDS011;11962;50.838;4.430;2023-05-07T10:50:19;6.93;;;3.08;;
23567;SDS011;11962;50.838;4.430;2023-05-07T10:52:21;6.55;;;2.60;;
23567;SDS011;11962;50.838;4.430;2023-05-07T10:57:46;6.82;;;2.95;;
23567;SDS011;11962;50.838;4.430;2023-05-07T11:05:28;4.60;;;2.17;;
23567;SDS011;11962;50.838;4.430;2023-05-07T11:10:21;6.38;;;2.92;;
23567;SDS011;11962;50.838;4.430;2023-05-07T11:12:51;9.02;;;2.30;;
23567;SDS011;11962;50.838;4.430;2023-05-07T11:15:36;4.65;;;3.10;;
23567;SDS011;11962;50.838;4.430;2023-05-07T11:18:04;4.95;;;1.90;;
23567;SDS011;11962;50.838;4.430;2023-05-07T11:20:49;4.53;;;1.75;;
23567;SDS011;11962;50.838;4.430;2023-05-07T11:23:54;6.65;;;1.83;;
23567;SDS011;11962;50.838;4.430;2023-05-07T11:26:18;4.10;;;2.20;;
23567;SDS011;11962;50.838;4.430;2023-05-07T11:28:45;4.28;;;1.90;;
23567;SDS011;11962;50.838;4.430;2023-05-07T11:31:11;4.72;;;1.85;;
23567;SDS011;11962;50.838;4.430;2023-05-07T11:33:37;4.13;;;1.75;;
23567;SDS011;11962;50.838;4.430;2023-05-07T11:36:04;7.57;;;3.33;;
23567;SDS011;11962;50.838;4.430;2023-05-07T11:38:30;8.52;;;5.60;;
23567;SDS011;11962;50.838;4.430;2023-05-07T11:41:00;3.65;;;2.10;;
23567;SDS011;11962;50.838;4.430;2023-05-07T11:43:26;4.13;;;1.88;;
23567;SDS011;11962;50.838;4.430;2023-05-07T11:45:52;4.30;;;1.60;;
23567;SDS011;11962;50.838;4.430;2023-05-07T11:48:18;3.22;;;1.90;;
23567;SDS011;11962;50.838;4.430;2023-05-07T11:50:52;2.85;;;1.67;;
23567;SDS011;11962;50.838;4.430;2023-05-07T11:53:24;2.65;;;1.70;;
23567;SDS011;11962;50.838;4.430;2023-05-07T11:56:00;3.00;;;1.80;;
23567;SDS011;11962;50.838;4.430;2023-05-07T11:58:35;3.80;;;1.58;;
23567;SDS011;11962;50.838;4.430;2023-05-07T12:01:01;4.18;;;1.90;;
23567;SDS011;11962;50.838;4.430;2023-05-07T12:03:27;3.35;;;2.30;;
23567;SDS011;11962;50.838;4.430;2023-05-07T12:05:53;4.40;;;2.63;;
23567;SDS011;11962;50.838;4.430;2023-05-07T12:08:20;3.17;;;2.00;;
23567;SDS011;11962;50.838;4.430;2023-05-07T12:10:50;2.93;;;1.80;;
23567;SDS011;11962;50.838;4.430;2023-05-07T12:13:17;3.55;;;1.70;;
23567;SDS011;11962;50.838;4.430;2023-05-07T12:15:43;5.35;;;2.45;;
23567;SDS011;11962;50.838;4.430;2023-05-07T12:18:09;3.22;;;1.88;;
23567;SDS011;11962;50.838;4.430;2023-05-07T12:20:38;3.40;;;1.80;;
23567;SDS011;11962;50.838;4.430;2023-05-07T12:23:05;3.90;;;1.70;;
23567;SDS011;11962;50.838;4.430;2023-05-07T12:25:34;4.15;;;1.73;;
23567;SDS011;11962;50.838;4.430;2023-05-07T12:28:02;2.25;;;1.42;;
23567;SDS011;11962;50.838;4.430;2023-05-07T12:30:30;2.55;;;1.40;;
23567;SDS011;11962;50.838;4.430;2023-05-07T12:32:56;3.05;;;1.58;;
23567;SDS011;11962;50.838;4.430;2023-05-07T12:35:26;3.88;;;1.40;;
23567;SDS011;11962;50.838;4.430;2023-05-07T12:37:59;2.17;;;1.40;;
23567;SDS011;11962;50.838;4.430;2023-05-07T12:40:36;2.58;;;1.48;;
23567;SDS011;11962;50.838;4.430;2023-05-07T12:43:02;2.92;;;1.40;;
23567;SDS011;11962;50.838;4.430;2023-05-07T12:45:27;5.28;;;1.60;;
23567;SDS011;11962;50.838;4.430;2023-05-07T12:47:53;1.80;;;1.17;;
23567;SDS011;11962;50.838;4.430;2023-05-07T12:50:19;2.40;;;1.33;;
23567;SDS011;11962;50.838;4.430;2023-05-07T12:52:46;2.70;;;1.30;;
23567;SDS011;11962;50.838;4.430;2023-05-07T12:55:16;3.42;;;1.50;;
23567;SDS011;11962;50.838;4.430;2023-05-07T12:57:43;6.20;;;1.80;;
23567;SDS011;11962;50.838;4.430;2023-05-07T13:00:13;3.88;;;1.60;;
23567;SDS011;11962;50.838;4.430;2023-05-07T13:02:39;5.25;;;2.05;;
23567;SDS011;11962;50.838;4.430;2023-05-07T13:05:06;2.75;;;1.73;;
23567;SDS011;11962;50.838;4.430;2023-05-07T13:07:33;4.18;;;1.98;;
23567;SDS011;11962;50.838;4.430;2023-05-07T13:09:59;2.72;;;1.73;;
23567;SDS011;11962;50.838;4.430;2023-05-07T13:12:25;2.60;;;2.05;;
23567;SDS011;11962;50.838;4.430;2023-05-07T13:14:50;3.88;;;2.80;;
23567;SDS011;11962;50.838;4.430;2023-05-07T13:17:16;3.20;;;2.33;;
23567;SDS011;11962;50.838;4.430;2023-05-07T13:19:43;4.00;;;3.13;;
23567;SDS011;11962;50.838;4.430;2023-05-07T13:22:09;5.63;;;3.50;;
23567;SDS011;11962;50.838;4.430;2023-05-07T13:24:35;6.18;;;3.50;;
23567;SDS011;11962;50.838;4.430;2023-05-07T13:27:01;4.25;;;3.85;;
23567;SDS011;11962;50.838;4.430;2023-05-07T13:29:28;4.28;;;3.30;;
23567;SDS011;11962;50.838;4.430;2023-05-07T13:31:58;6.10;;;3.72;;
23567;SDS011;11962;50.838;4.430;2023-05-07T13:34:24;5.00;;;4.00;;
23567;SDS011;11962;50.838;4.430;2023-05-07T13:36:49;5.75;;;3.83;;
23567;SDS011;11962;50.838;4.430;2023-05-07T13:39:15;5.43;;;4.25;;
23567;SDS011;11962;50.838;4.430;2023-05-07T13:41:41;5.63;;;3.85;;
23567;SDS011;11962;50.838;4.430;2023-05-07T13:44:07;4.68;;;4.15;;
23567;SDS011;11962;50.838;4.430;2023-05-07T13:46:33;5.13;;;4.13;;
23567;SDS011;11962;50.838;4.430;2023-05-07T13:48:58;4.93;;;4.03;;
23567;SDS011;11962;50.838;4.430;2023-05-07T13:51:24;5.63;;;4.35;;
23567;SDS011;11962;50.838;4.430;2023-05-07T13:53:50;5.40;;;4.13;;
23567;SDS011;11962;50.838;4.430;2023-05-07T13:56:17;5.53;;;4.60;;
23567;SDS011;11962;50.838;4.430;2023-05-07T13:58:43;5.15;;;4.63;;
23567;SDS011;11962;50.838;4.430;2023-05-07T14:01:09;6.15;;;5.30;;
23567;SDS011;11962;50.838;4.430;2023-05-07T14:03:35;5.78;;;4.72;;
23567;SDS011;11962;50.838;4.430;2023-05-07T14:06:03;5.87;;;4.83;;
23567;SDS011;11962;50.838;4.430;2023-05-07T14:08:29;5.15;;;4.65;;
23567;SDS011;11962;50.838;4.430;2023-05-07T14:10:54;6.13;;;5.13;;
23567;SDS011;11962;50.838;4.430;2023-05-07T14:13:20;6.25;;;5.65;;
23567;SDS011;11962;50.838;4.430;2023-05-07T14:15:46;6.97;;;5.78;;
23567;SDS011;11962;50.838;4.430;2023-05-07T14:18:14;8.50;;;5.40;;
23567;SDS011;11962;50.838;4.430;2023-05-07T14:20:40;6.72;;;6.03;;
23567;SDS011;11962;50.838;4.430;2023-05-07T14:23:08;6.50;;;5.78;;
23567;SDS011;11962;50.838;4.430;2023-05-07T14:25:33;7.97;;;6.05;;
23567;SDS011;11962;50.838;4.430;2023-05-07T14:27:59;7.03;;;6.32;;
23567;SDS011;11962;50.838;4.430;2023-05-07T14:30:25;7.55;;;6.50;;
23567;SDS011;11962;50.838;4.430;2023-05-07T14:32:51;10.57;;;7.10;;
23567;SDS011;11962;50.838;4.430;2023-05-07T14:35:17;7.82;;;6.90;;
23567;SDS011;11962;50.838;4.430;2023-05-07T14:37:42;8.07;;;6.97;;
23567;SDS011;11962;50.838;4.430;2023-05-07T14:40:08;8.25;;;6.65;;
23567;SDS011;11962;50.838;4.430;2023-05-07T14:42:35;10.55;;;6.80;;
23567;SDS011;11962;50.838;4.430;2023-05-07T14:45:01;7.50;;;6.75;;
23567;SDS011;11962;50.838;4.430;2023-05-07T14:47:27;7.18;;;6.47;;
23567;SDS011;11962;50.838;4.430;2023-05-07T14:49:53;7.30;;;6.50;;
23567;SDS011;11962;50.838;4.430;2023-05-07T14:52:19;8.00;;;6.80;;
23567;SDS011;11962;50.838;4.430;2023-05-07T14:54:45;7.93;;;6.07;;
23567;SDS011;11962;50.838;4.430;2023-05-07T14:57:11;6.90;;;5.60;;
23567;SDS011;11962;50.838;4.430;2023-05-07T15:02:06;7.30;;;5.82;;
23567;SDS011;11962;50.838;4.430;2023-05-07T15:04:32;6.78;;;5.75;;
23567;SDS011;11962;50.838;4.430;2023-05-07T15:06:59;6.10;;;5.50;;